sensor_id;sensor_type;location;lat;lon;timestamp;pressure;altitude;pressure_sealevel;temperature;humidity
10392;BME280;5242;49.244;6.774;2023-07-31T00:01:47;99493.75;;;16.22;nan
10392;BME280;5242;49.244;6.774;2023-07-31T00:09:39;99487.09;;;16.23;nan
10392;BME280;5242;49.244;6.774;2023-07-31T00:17:31;99489.06;;;16.16;nan
10392;BME280;5242;49.244;6.774;2023-07-31T00:25:23;99485.13;;;16.02;nan
10392;BME280;5242;49.244;6.774;2023-07-31T00:33:15;99490.59;;;15.92;nan
10392;BME280;5242;49.244;6.774;2023-07-31T00:41:07;99510.22;;;15.86;nan
10392;BME280;5242;49.244;6.774;2023-07-31T00:48:59;99498.44;;;15.75;nan
10392;BME280;5242;49.244;6.774;2023-07-31T00:56:52;99490.56;;;15.74;nan
10392;BME280;5242;49.244;6.774;2023-07-31T01:04:45;99475.28;;;15.76;nan
10392;BME280;5242;49.244;6.774;2023-07-31T01:12:38;99460.78;;;15.86;nan
10392;BME280;5242;49.244;6.774;2023-07-31T01:20:31;99451.38;;;15.98;nan
10392;BME280;5242;49.244;6.774;2023-07-31T01:28:55;99448.22;;;16.07;nan
10392;BME280;5242;49.244;6.774;2023-07-31T01:37:03;99440.00;;;16.14;nan
10392;BME280;5242;49.244;6.774;2023-07-31T01:44:55;99425.88;;;16.16;nan
10392;BME280;5242;49.244;6.774;2023-07-31T01:52:47;99432.56;;;16.18;nan
10392;BME280;5242;49.244;6.774;2023-07-31T02:00:39;99428.59;;;16.23;nan
10392;BME280;5242;49.244;6.774;2023-07-31T02:08:31;99418.78;;;16.33;nan
10392;BME280;5242;49.244;6.774;2023-07-31T02:16:22;99420.34;;;16.30;nan
10392;BME280;5242;49.244;6.774;2023-07-31T02:24:14;99412.13;;;16.23;nan
10392;BME280;5242;49.244;6.774;2023-07-31T02:32:06;99403.50;;;16.17;nan
10392;BME280;5242;49.244;6.774;2023-07-31T02:39:58;99405.88;;;16.08;nan
10392;BME280;5242;49.244;6.774;2023-07-31T02:47:50;99409.78;;;16.00;nan
10392;BME280;5242;49.244;6.774;2023-07-31T02:55:43;99407.81;;;15.90;nan
10392;BME280;5242;49.244;6.774;2023-07-31T03:03:35;99411.34;;;15.86;nan
10392;BME280;5242;49.244;6.774;2023-07-31T03:11:27;99406.66;;;15.83;nan
10392;BME280;5242;49.244;6.774;2023-07-31T03:19:19;99412.91;;;15.73;nan
10392;BME280;5242;49.244;6.774;2023-07-31T03:27:11;99412.09;;;15.65;nan
10392;BME280;5242;49.244;6.774;2023-07-31T03:35:03;99422.69;;;15.60;nan
10392;BME280;5242;49.244;6.774;2023-07-31T03:42:57;99398.38;;;15.55;nan
10392;BME280;5242;49.244;6.774;2023-07-31T03:51:09;99401.88;;;15.48;nan
10392;BME280;5242;49.244;6.774;2023-07-31T03:59:01;99408.16;;;15.45;nan
10392;BME280;5242;49.244;6.774;2023-07-31T04:06:53;99392.41;;;15.31;nan
10392;BME280;5242;49.244;6.774;2023-07-31T04:14:45;99404.94;;;15.14;nan
10392;BME280;5242;49.244;6.774;2023-07-31T04:22:37;99397.84;;;15.10;nan
10392;BME280;5242;49.244;6.774;2023-07-31T04:30:29;99382.59;;;15.16;nan
10392;BME280;5242;49.244;6.774;2023-07-31T04:38:21;99392.41;;;15.31;nan
10392;BME280;5242;49.244;6.774;2023-07-31T04:46:13;99377.19;;;15.44;nan
10392;BME280;5242;49.244;6.774;2023-07-31T04:54:05;99382.66;;;15.59;nan
10392;BME280;5242;49.244;6.774;2023-07-31T05:01:57;99369.00;;;15.73;nan
10392;BME280;5242;49.244;6.774;2023-07-31T05:09:49;99354.09;;;15.85;nan
10392;BME280;5242;49.244;6.774;2023-07-31T05:17:41;99352.88;;;16.04;nan
10392;BME280;5242;49.244;6.774;2023-07-31T05:25:33;99361.09;;;16.25;nan
10392;BME280;5242;49.244;6.774;2023-07-31T05:33:25;99372.47;;;16.35;nan
10392;BME280;5242;49.244;6.774;2023-07-31T05:41:17;99359.47;;;16.46;nan
10392;BME280;5242;49.244;6.774;2023-07-31T05:49:10;99343.31;;;16.62;nan
10392;BME280;5242;49.244;6.774;2023-07-31T05:57:02;99331.50;;;16.72;nan
10392;BME280;5242;49.244;6.774;2023-07-31T06:04:53;99331.41;;;16.94;nan
10392;BME280;5242;49.244;6.774;2023-07-31T06:12:46;99334.75;;;17.27;nan
10392;BME280;5242;49.244;6.774;2023-07-31T06:20:37;99336.09;;;17.60;nan
10392;BME280;5242;49.244;6.774;2023-07-31T06:28:32;99343.72;;;17.90;nan
10392;BME280;5242;49.244;6.774;2023-07-31T06:36:24;99348.06;;;18.29;nan
10392;BME280;5242;49.244;6.774;2023-07-31T06:44:16;99335.75;;;18.75;nan
10392;BME280;5242;49.244;6.774;2023-07-31T06:52:08;99324.13;;;19.18;nan
10392;BME280;5242;49.244;6.774;2023-07-31T07:00:00;99326.81;;;19.49;nan
10392;BME280;5242;49.244;6.774;2023-07-31T07:07:52;99330.75;;;19.48;nan
10392;BME280;5242;49.244;6.774;2023-07-31T07:15:52;99322.91;;;19.46;nan
10392;BME280;5242;49.244;6.774;2023-07-31T07:23:45;99316.13;;;19.51;nan
10392;BME280;5242;49.244;6.774;2023-07-31T07:31:37;99308.72;;;19.95;nan
10392;BME280;5242;49.244;6.774;2023-07-31T07:39:29;99286.22;;;20.56;nan
10392;BME280;5242;49.244;6.774;2023-07-31T07:47:21;99288.72;;;20.87;nan
10392;BME280;5242;49.244;6.774;2023-07-31T07:55:12;99268.72;;;20.79;nan
10392;BME280;5242;49.244;6.774;2023-07-31T08:03:04;99289.09;;;21.05;nan
10392;BME280;5242;49.244;6.774;2023-07-31T08:10:56;99277.44;;;21.63;nan
10392;BME280;5242;49.244;6.774;2023-07-31T08:18:48;99255.91;;;22.29;nan
10392;BME280;5242;49.244;6.774;2023-07-31T08:26:40;99267.75;;;23.10;nan
10392;BME280;5242;49.244;6.774;2023-07-31T08:34:33;99240.38;;;23.47;nan
10392;BME280;5242;49.244;6.774;2023-07-31T08:42:25;99238.75;;;23.72;nan
10392;BME280;5242;49.244;6.774;2023-07-31T08:50:19;99220.69;;;23.89;nan
10392;BME280;5242;49.244;6.774;2023-07-31T08:58:12;99218.09;;;24.17;nan
10392;BME280;5242;49.244;6.774;2023-07-31T09:06:05;99222.81;;;26.15;nan
10392;BME280;5242;49.244;6.774;2023-07-31T09:13:58;99246.50;;;25.46;nan
10392;BME280;5242;49.244;6.774;2023-07-31T09:21:50;99239.19;;;24.27;nan
10392;BME280;5242;49.244;6.774;2023-07-31T09:29:42;99236.28;;;23.86;nan
10392;BME280;5242;49.244;6.774;2023-07-31T09:37:34;99236.59;;;23.41;nan
10392;BME280;5242;49.244;6.774;2023-07-31T09:45:26;99232.84;;;23.35;nan
10392;BME280;5242;49.244;6.774;2023-07-31T09:53:32;99230.19;;;23.31;nan
10392;BME280;5242;49.244;6.774;2023-07-31T10:01:24;99234.34;;;23.01;nan
10392;BME280;5242;49.244;6.774;2023-07-31T10:09:17;99235.31;;;22.94;nan
10392;BME280;5242;49.244;6.774;2023-07-31T10:17:10;99240.78;;;22.98;nan
10392;BME280;5242;49.244;6.774;2023-07-31T10:25:03;99227.41;;;22.80;nan
10392;BME280;5242;49.244;6.774;2023-07-31T10:32:56;99216.88;;;22.88;nan
10392;BME280;5242;49.244;6.774;2023-07-31T10:40:49;99206.84;;;23.29;nan
10392;BME280;5242;49.244;6.774;2023-07-31T10:48:41;99202.72;;;23.81;nan
10392;BME280;5242;49.244;6.774;2023-07-31T10:56:37;99193.84;;;23.95;nan
10392;BME280;5242;49.244;6.774;2023-07-31T11:04:30;99185.91;;;23.72;nan
10392;BME280;5242;49.244;6.774;2023-07-31T11:12:24;99183.53;;;23.61;nan
10392;BME280;5242;49.244;6.774;2023-07-31T11:20:16;99193.28;;;23.31;nan
10392;BME280;5242;49.244;6.774;2023-07-31T11:28:10;99191.00;;;22.91;nan
10392;BME280;5242;49.244;6.774;2023-07-31T11:36:03;99189.56;;;22.73;nan
10392;BME280;5242;49.244;6.774;2023-07-31T11:44:00;99175.91;;;22.66;nan
10392;BME280;5242;49.244;6.774;2023-07-31T11:52:08;99176.34;;;22.65;nan
10392;BME280;5242;49.244;6.774;2023-07-31T12:00:00;99160.03;;;22.79;nan
10392;BME280;5242;49.244;6.774;2023-07-31T12:07:53;99159.47;;;22.97;nan
10392;BME280;5242;49.244;6.774;2023-07-31T12:15:46;99165.56;;;23.05;nan
10392;BME280;5242;49.244;6.774;2023-07-31T12:23:38;99155.13;;;23.09;nan
10392;BME280;5242;49.244;6.774;2023-07-31T12:31:33;99151.38;;;23.38;nan
10392;BME280;5242;49.244;6.774;2023-07-31T12:39:25;99160.84;;;23.28;nan
10392;BME280;5242;49.244;6.774;2023-07-31T12:47:17;99151.69;;;22.92;nan
10392;BME280;5242;49.244;6.774;2023-07-31T12:55:09;99113.91;;;23.08;nan
10392;BME280;5242;49.244;6.774;2023-07-31T13:03:02;99093.03;;;23.82;nan
10392;BME280;5242;49.244;6.774;2023-07-31T13:10:55;99073.69;;;24.90;nan
10392;BME280;5242;49.244;6.774;2023-07-31T13:18:47;99060.66;;;25.70;nan
10392;BME280;5242;49.244;6.774;2023-07-31T13:26:39;99037.03;;;27.04;nan
10392;BME280;5242;49.244;6.774;2023-07-31T13:34:31;99043.41;;;27.44;nan
10392;BME280;5242;49.244;6.774;2023-07-31T13:42:23;99037.53;;;27.03;nan
10392;BME280;5242;49.244;6.774;2023-07-31T13:50:15;99026.25;;;26.73;nan
10392;BME280;5242;49.244;6.774;2023-07-31T13:58:08;99026.34;;;26.31;nan
10392;BME280;5242;49.244;6.774;2023-07-31T14:06:00;99023.16;;;25.71;nan
10392;BME280;5242;49.244;6.774;2023-07-31T14:13:52;99029.44;;;25.20;nan
10392;BME280;5242;49.244;6.774;2023-07-31T14:21:44;99019.81;;;25.03;nan
10392;BME280;5242;49.244;6.774;2023-07-31T14:29:56;99020.13;;;25.14;nan
10392;BME280;5242;49.244;6.774;2023-07-31T14:37:48;99014.88;;;25.25;nan
10392;BME280;5242;49.244;6.774;2023-07-31T14:45:40;98991.34;;;25.35;nan
10392;BME280;5242;49.244;6.774;2023-07-31T14:53:32;99007.09;;;25.38;nan
10392;BME280;5242;49.244;6.774;2023-07-31T15:01:24;99002.97;;;24.88;nan
10392;BME280;5242;49.244;6.774;2023-07-31T15:09:16;98986.25;;;24.11;nan
10392;BME280;5242;49.244;6.774;2023-07-31T15:17:08;98975.81;;;23.52;nan
10392;BME280;5242;49.244;6.774;2023-07-31T15:25:00;98971.19;;;23.05;nan
10392;BME280;5242;49.244;6.774;2023-07-31T15:32:52;98976.63;;;22.74;nan
10392;BME280;5242;49.244;6.774;2023-07-31T15:40:44;98965.56;;;22.61;nan
10392;BME280;5242;49.244;6.774;2023-07-31T15:48:36;98966.19;;;22.43;nan
10392;BME280;5242;49.244;6.774;2023-07-31T15:56:28;98974.13;;;22.19;nan
10392;BME280;5242;49.244;6.774;2023-07-31T16:04:20;98986.63;;;21.98;nan
10392;BME280;5242;49.244;6.774;2023-07-31T16:12:12;98970.66;;;21.64;nan
10392;BME280;5242;49.244;6.774;2023-07-31T16:20:04;98965.47;;;21.24;nan
10392;BME280;5242;49.244;6.774;2023-07-31T16:27:58;98981.69;;;20.96;nan
10392;BME280;5242;49.244;6.774;2023-07-31T16:35:50;98974.47;;;20.70;nan
10392;BME280;5242;49.244;6.774;2023-07-31T16:43:42;98966.19;;;20.53;nan
10392;BME280;5242;49.244;6.774;2023-07-31T16:51:34;98953.00;;;20.28;nan
10392;BME280;5242;49.244;6.774;2023-07-31T16:59:27;98952.81;;;20.19;nan
10392;BME280;5242;49.244;6.774;2023-07-31T17:07:19;98944.44;;;20.06;nan
10392;BME280;5242;49.244;6.774;2023-07-31T17:15:13;98947.88;;;19.94;nan
10392;BME280;5242;49.244;6.774;2023-07-31T17:23:05;98919.63;;;19.86;nan
10392;BME280;5242;49.244;6.774;2023-07-31T17:30:58;98886.94;;;19.85;nan
10392;BME280;5242;49.244;6.774;2023-07-31T17:38:50;98860.84;;;20.02;nan
10392;BME280;5242;49.244;6.774;2023-07-31T17:46:42;98851.22;;;20.07;nan
10392;BME280;5242;49.244;6.774;2023-07-31T17:54:34;98846.69;;;20.00;nan
10392;BME280;5242;49.244;6.774;2023-07-31T18:02:26;98851.88;;;19.98;nan
10392;BME280;5242;49.244;6.774;2023-07-31T18:10:19;98841.50;;;19.86;nan
10392;BME280;5242;49.244;6.774;2023-07-31T18:18:11;98858.09;;;19.69;nan
10392;BME280;5242;49.244;6.774;2023-07-31T18:26:03;98857.00;;;19.63;nan
10392;BME280;5242;49.244;6.774;2023-07-31T18:33:55;98858.53;;;19.31;nan
10392;BME280;5242;49.244;6.774;2023-07-31T18:41:47;98853.91;;;18.92;nan
10392;BME280;5242;49.244;6.774;2023-07-31T18:49:39;98861.28;;;18.55;nan
10392;BME280;5242;49.244;6.774;2023-07-31T18:57:31;98832.50;;;18.36;nan
10392;BME280;5242;49.244;6.774;2023-07-31T19:05:23;98827.19;;;18.06;nan
10392;BME280;5242;49.244;6.774;2023-07-31T19:13:15;98805.50;;;17.84;nan
10392;BME280;5242;49.244;6.774;2023-07-31T19:21:07;98806.34;;;17.81;nan
10392;BME280;5242;49.244;6.774;2023-07-31T19:28:59;98809.19;;;17.74;nan
10392;BME280;5242;49.244;6.774;2023-07-31T19:36:51;98801.84;;;17.67;nan
10392;BME280;5242;49.244;6.774;2023-07-31T19:44:43;98801.19;;;17.59;nan
10392;BME280;5242;49.244;6.774;2023-07-31T19:52:35;98797.31;;;17.53;nan
10392;BME280;5242;49.244;6.774;2023-07-31T20:00:27;98790.50;;;17.38;nan
10392;BME280;5242;49.244;6.774;2023-07-31T20:08:19;98759.22;;;17.28;nan
10392;BME280;5242;49.244;6.774;2023-07-31T20:16:11;98757.72;;;17.24;nan
10392;BME280;5242;49.244;6.774;2023-07-31T20:24:05;98736.88;;;17.23;nan
10392;BME280;5242;49.244;6.774;2023-07-31T20:31:57;98730.31;;;17.16;nan
10392;BME280;5242;49.244;6.774;2023-07-31T20:39:49;98718.09;;;17.17;nan
10392;BME280;5242;49.244;6.774;2023-07-31T20:47:41;98686.66;;;17.19;nan
10392;BME280;5242;49.244;6.774;2023-07-31T20:55:37;98645.38;;;17.19;nan
10392;BME280;5242;49.244;6.774;2023-07-31T21:03:29;98578.72;;;17.11;nan
10392;BME280;5242;49.244;6.774;2023-07-31T21:11:24;98604.31;;;17.08;nan
10392;BME280;5242;49.244;6.774;2023-07-31T21:19:16;98604.59;;;17.13;nan
10392;BME280;5242;49.244;6.774;2023-07-31T21:27:09;98604.53;;;17.17;nan
10392;BME280;5242;49.244;6.774;2023-07-31T21:35:01;98609.97;;;17.21;nan
10392;BME280;5242;49.244;6.774;2023-07-31T21:42:53;98584.88;;;17.19;nan
10392;BME280;5242;49.244;6.774;2023-07-31T21:50:45;98558.19;;;17.15;nan
10392;BME280;5242;49.244;6.774;2023-07-31T21:58:37;98533.56;;;17.08;nan
10392;BME280;5242;49.244;6.774;2023-07-31T22:06:29;98556.59;;;17.18;nan
10392;BME280;5242;49.244;6.774;2023-07-31T22:14:21;98573.13;;;17.14;nan
10392;BME280;5242;49.244;6.774;2023-07-31T22:22:13;98545.75;;;17.07;nan
10392;BME280;5242;49.244;6.774;2023-07-31T22:30:05;98500.53;;;16.88;nan
10392;BME280;5242;49.244;6.774;2023-07-31T22:37:57;98471.97;;;16.82;nan
10392;BME280;5242;49.244;6.774;2023-07-31T22:45:49;98452.78;;;16.79;nan
10392;BME280;5242;49.244;6.774;2023-07-31T22:53:41;98435.13;;;16.80;nan
10392;BME280;5242;49.244;6.774;2023-07-31T23:01:33;98416.56;;;16.84;nan
10392;BME280;5242;49.244;6.774;2023-07-31T23:09:25;98406.28;;;16.88;nan
10392;BME280;5242;49.244;6.774;2023-07-31T23:17:17;98385.47;;;16.87;nan
10392;BME280;5242;49.244;6.774;2023-07-31T23:25:09;98373.28;;;16.88;nan
10392;BME280;5242;49.244;6.774;2023-07-31T23:33:01;98429.81;;;16.89;nan
10392;BME280;5242;49.244;6.774;2023-07-31T23:40:53;98394.44;;;16.91;nan
10392;BME280;5242;49.244;6.774;2023-07-31T23:48:45;98404.56;;;16.94;nan
10392;BME280;5242;49.244;6.774;2023-07-31T23:56:40;98391.25;;;16.92;nan
